(°C)
22°
24°
24°
24°
24°
24°
24°
(°C)
19°
20°
20°
20°
20°
20°
20°
SSW
SW
SSW
SSW
SSW
SW
SW
(km/h)
21-33
25-40
23-43
24-46
23-48
23-48
21-43
(mm)
0
0
0
0
0.2
0
0
(%)
1
1
0
1
31
22
17

Elevazione del sole

/ 34.5°
sun-icon
UV 5
05:32
21:04
Luna calante (346°)
05:25
19:39

METAR per Bordenau (ETNW)

Ora Condizioni Temperatura/
Punto di rugiada
Vento Visibilità Tempo Nuvole Pressione Cambiamento Grezzo
VFR 23°C / 10°C 220º 8kt >10km - Few Clouds 10000ft 1003 Temporary: Hail . ETNW 100720Z 22008KT 9999 FEW100 BKN120 BKN230 23/10 Q1003 BLU BLU TEMPO GRN
VFR 20°C / 11°C 180º 4kt >10km - Few Clouds 4500ft 1003 Temporary: Hail . ETNW 100620Z 18004KT 9999 FEW045 BKN100 BKN240 20/11 Q1003 BLU BLU TEMPO GRN
VFR 19°C / 10°C 140º 4kt >10km - Few Clouds 10000ft 1002 Temporary: Hail . ETNW 100520Z 14004KT 9999 FEW100 BKN110 19/10 Q1002 BLU BLU TEMPO GRN
VFR 18°C / 10°C 150º 4kt >10km - Few Clouds 10000ft 1002 Temporary: Hail . ETNW 100420Z 15004KT 9999 FEW100 BKN120 18/10 Q1002 BLU BLU TEMPO GRN
20°C / 8°C 210º 8kt 7000m - 1002 - ETNW 100320Z AUTO 21008KT 7000 // ////// 20/08 Q1002 ///
20°C / 8°C 220º 9kt 8000m - 1002 - ETNW 100220Z AUTO 22009KT 8000 // ////// 20/08 Q1002 ///
21°C / 7°C 200º 7kt 8000m - 1002 - ETNW 100120Z AUTO 20007KT 8000 // ////// 21/07 Q1002 ///
19°C / 7°C 200º 4kt 8000m - 1002 - ETNW 100020Z AUTO 20004KT 8000 // ////// 19/07 Q1002 ///
20°C / 7°C 190º 6kt 8000m - 1002 - ETNW 092320Z AUTO 19006KT 8000 // ////// 20/07 Q1002 ///
21°C / 7°C 180º 12kt 8000m - 1002 - ETNW 092220Z AUTO 18012KT 8000 // ////// 21/07 Q1002 ///
22°C / 9°C 200º 8kt 8000m - 1002 - ETNW 092120Z AUTO 20008KT 8000 // ////// 22/09 Q1002 ///
20°C / 11°C 170º 4kt 8000m - 1002 - ETNW 092020Z AUTO 17004KT 8000 // ////// 20/11 Q1002 ///
23°C / 10°C 170º 9kt 8000m - 1001 - ETNW 091920Z AUTO 17009KT 8000 // ////// 23/10 Q1001 ///
25°C / 10°C 180º 11kt 9000m - 1001 - ETNW 091820Z AUTO 18011KT 9000 // ////// 25/10 Q1001 ///
27°C / 9°C 180º 16kt 9000m - 1001 - ETNW 091720Z AUTO 18016KT 9000 // ////// 27/09 Q1001 ///
29°C / 10°C 200º 16kt >10km - 1001 - ETNW 091620Z AUTO 20016KT 9999 // ////// 29/10 Q1001 ///
28°C / 10°C 190º 19kt >10km - 1002 - ETNW 091520Z AUTO 19019KT 9999 // ////// 28/10 Q1002 ///
28°C / 13°C 170º 14kt >10km - 1002 - ETNW 091420Z AUTO 17014KT 9999 // ////// 28/13 Q1002 ///
28°C / 13°C 170º 10kt 9000m - 1003 - ETNW 091320Z AUTO 17010KT 9000 // ////// 28/13 Q1003 ///
27°C / 11°C 180º 13kt >10km - 1004 - ETNW 091220Z AUTO 18013KT 9999 // ////// 27/11 Q1004 ///
26°C / 10°C 180º 14kt 9000m - 1005 - ETNW 091120Z AUTO 18014KT 9000 // ////// 26/10 Q1005 ///
24°C / 9°C 170º 11kt 7000m - 1005 - ETNW 091020Z AUTO 17011KT 7000 // ////// 24/09 Q1005 ///
22°C / 11°C 160º 11kt 8000m - 1006 - ETNW 090920Z AUTO 16011KT 8000 // ////// 22/11 Q1006 ///
20°C / 9°C 180º 10kt 8000m - 1007 - ETNW 090820Z AUTO 18010KT 8000 // ////// 20/09 Q1007 ///

VFR

23°C / 10°C

[Più]
Vento 220º 8kt
Visibilità >10km
Tempo -
Nuvole Few Clouds 10000ft
Pressione 1003
Cambiamento Temporary: Hail .
Grezzo ETNW 100720Z 22008KT 9999 FEW100 BKN120 BKN230 23/10 Q1003 BLU BLU TEMPO GRN

VFR

20°C / 11°C

[Più]
Vento 180º 4kt
Visibilità >10km
Tempo -
Nuvole Few Clouds 4500ft
Pressione 1003
Cambiamento Temporary: Hail .
Grezzo ETNW 100620Z 18004KT 9999 FEW045 BKN100 BKN240 20/11 Q1003 BLU BLU TEMPO GRN

VFR

19°C / 10°C

[Più]
Vento 140º 4kt
Visibilità >10km
Tempo -
Nuvole Few Clouds 10000ft
Pressione 1002
Cambiamento Temporary: Hail .
Grezzo ETNW 100520Z 14004KT 9999 FEW100 BKN110 19/10 Q1002 BLU BLU TEMPO GRN

VFR

18°C / 10°C

[Più]
Vento 150º 4kt
Visibilità >10km
Tempo -
Nuvole Few Clouds 10000ft
Pressione 1002
Cambiamento Temporary: Hail .
Grezzo ETNW 100420Z 15004KT 9999 FEW100 BKN120 18/10 Q1002 BLU BLU TEMPO GRN

20°C / 8°C

[Più]
Vento 210º 8kt
Visibilità 7000m
Tempo -
Nuvole
Pressione 1002
Cambiamento -
Grezzo ETNW 100320Z AUTO 21008KT 7000 // ////// 20/08 Q1002 ///

20°C / 8°C

[Più]
Vento 220º 9kt
Visibilità 8000m
Tempo -
Nuvole
Pressione 1002
Cambiamento -
Grezzo ETNW 100220Z AUTO 22009KT 8000 // ////// 20/08 Q1002 ///

21°C / 7°C

[Più]
Vento 200º 7kt
Visibilità 8000m
Tempo -
Nuvole
Pressione 1002
Cambiamento -
Grezzo ETNW 100120Z AUTO 20007KT 8000 // ////// 21/07 Q1002 ///

19°C / 7°C

[Più]
Vento 200º 4kt
Visibilità 8000m
Tempo -
Nuvole
Pressione 1002
Cambiamento -
Grezzo ETNW 100020Z AUTO 20004KT 8000 // ////// 19/07 Q1002 ///

20°C / 7°C

[Più]
Vento 190º 6kt
Visibilità 8000m
Tempo -
Nuvole
Pressione 1002
Cambiamento -
Grezzo ETNW 092320Z AUTO 19006KT 8000 // ////// 20/07 Q1002 ///

21°C / 7°C

[Più]
Vento 180º 12kt
Visibilità 8000m
Tempo -
Nuvole
Pressione 1002
Cambiamento -
Grezzo ETNW 092220Z AUTO 18012KT 8000 // ////// 21/07 Q1002 ///

22°C / 9°C

[Più]
Vento 200º 8kt
Visibilità 8000m
Tempo -
Nuvole
Pressione 1002
Cambiamento -
Grezzo ETNW 092120Z AUTO 20008KT 8000 // ////// 22/09 Q1002 ///

20°C / 11°C

[Più]
Vento 170º 4kt
Visibilità 8000m
Tempo -
Nuvole
Pressione 1002
Cambiamento -
Grezzo ETNW 092020Z AUTO 17004KT 8000 // ////// 20/11 Q1002 ///

23°C / 10°C

[Più]
Vento 170º 9kt
Visibilità 8000m
Tempo -
Nuvole
Pressione 1001
Cambiamento -
Grezzo ETNW 091920Z AUTO 17009KT 8000 // ////// 23/10 Q1001 ///

25°C / 10°C

[Più]
Vento 180º 11kt
Visibilità 9000m
Tempo -
Nuvole
Pressione 1001
Cambiamento -
Grezzo ETNW 091820Z AUTO 18011KT 9000 // ////// 25/10 Q1001 ///

27°C / 9°C

[Più]
Vento 180º 16kt
Visibilità 9000m
Tempo -
Nuvole
Pressione 1001
Cambiamento -
Grezzo ETNW 091720Z AUTO 18016KT 9000 // ////// 27/09 Q1001 ///

29°C / 10°C

[Più]
Vento 200º 16kt
Visibilità >10km
Tempo -
Nuvole
Pressione 1001
Cambiamento -
Grezzo ETNW 091620Z AUTO 20016KT 9999 // ////// 29/10 Q1001 ///

28°C / 10°C

[Più]
Vento 190º 19kt
Visibilità >10km
Tempo -
Nuvole
Pressione 1002
Cambiamento -
Grezzo ETNW 091520Z AUTO 19019KT 9999 // ////// 28/10 Q1002 ///

28°C / 13°C

[Più]
Vento 170º 14kt
Visibilità >10km
Tempo -
Nuvole
Pressione 1002
Cambiamento -
Grezzo ETNW 091420Z AUTO 17014KT 9999 // ////// 28/13 Q1002 ///

28°C / 13°C

[Più]
Vento 170º 10kt
Visibilità 9000m
Tempo -
Nuvole
Pressione 1003
Cambiamento -
Grezzo ETNW 091320Z AUTO 17010KT 9000 // ////// 28/13 Q1003 ///

27°C / 11°C

[Più]
Vento 180º 13kt
Visibilità >10km
Tempo -
Nuvole
Pressione 1004
Cambiamento -
Grezzo ETNW 091220Z AUTO 18013KT 9999 // ////// 27/11 Q1004 ///

26°C / 10°C

[Più]
Vento 180º 14kt
Visibilità 9000m
Tempo -
Nuvole
Pressione 1005
Cambiamento -
Grezzo ETNW 091120Z AUTO 18014KT 9000 // ////// 26/10 Q1005 ///

24°C / 9°C

[Più]
Vento 170º 11kt
Visibilità 7000m
Tempo -
Nuvole
Pressione 1005
Cambiamento -
Grezzo ETNW 091020Z AUTO 17011KT 7000 // ////// 24/09 Q1005 ///

22°C / 11°C

[Più]
Vento 160º 11kt
Visibilità 8000m
Tempo -
Nuvole
Pressione 1006
Cambiamento -
Grezzo ETNW 090920Z AUTO 16011KT 8000 // ////// 22/11 Q1006 ///

20°C / 9°C

[Più]
Vento 180º 10kt
Visibilità 8000m
Tempo -
Nuvole
Pressione 1007
Cambiamento -
Grezzo ETNW 090820Z AUTO 18010KT 8000 // ////// 20/09 Q1007 ///

TAF per Bordenau (ETNW)

From till


From till Wind 180º 8kt. Visibility 10km or more. Broken Clouds 12000ft.
Temporarly from till Wind 200º 12kt. Gust 22kt. Visibility 4000m. Showers Rain . Few Clouds 2500ft. Broken Clouds 6000ft.
Temporarly from till Wind 230º 15kt. Gust 30kt. Visibility 10km or more. Scattered Clouds 4000ft.
Becoming from till Wind 220º 15kt. Visibility 10km or more. Broken Clouds 10000ft.
Temporarly from till Wind 290º 5kt. Visibility 4000m. Rain . Broken Clouds 1000ft.

Grezzo: TAF AMD ETNW 100650Z 1006/1105 18008KT 9999 NSW BKN120 TEMPO 1006/1009 20012G22KT 4000 SHRA FEW025 BKN060CB BECMG 1009/1011 22015KT 9999 NSW BKN100 TEMPO 1009/1015 23015G30KT 9999 NSW SCT040 TEMPO 1018/1106 29005KT 4000 RA BKN010 BY ETGL

Tempo in atto per Bordenau: immagine satellitare e pioggia, Germania

  • Precipitazioni:
  • <1 mm
  • 1-2 mm
  • 2-5 mm
  • >5 mm

Il segnaposto è situato a Bordenau. [Più]

L'immagine satellitare in tempo reale combina la luce visibile durante il giorno con la radiazione infrarossa durante la notte. Di notte l'immagine non è scura poiché i raggi infrarossi possono rilevare differenze di temperatura. Purtroppo, le nuvole basse e la nebbia sono difficili da distinguere dalla temperatura del suolo e possono pertanto essere quasi invisibili durante la notte. Le immagini satellitari Meteosat per l'Europa vengono aggiornate in tempo reale ogni 5 minuti. Le immagini GOES-16 / GOES-17 (Nord e Sud America) e Himawari (Asia) vengono aggiornate ogni 10 minuti.

Le precipitazioni sono stimate da radar e satellite. Una precipitazione notturna stimata da satellite è meno accurata di una diurna. Le croci arancioni identificano i fulmini caduti (in Europa).

Copyright 2021 EUMETSAT / meteoblue. Fulminazioni fornite da nowcast.

Radar per Bordenau

Il segnaposto è situato a Bordenau. Questa animazione mostra il radar delle precipitazioni per l'ultima ora, nonché una previsione 2h. Il radar può non individuare correttamente pioviggine o nevischio. L’intensità delle precipitazioni è associata a una scala di colori, dal blu chiaro fino al viola scuro.
Copyright 2021 Deutscher Wetterdienst / meteoblue.

Situazione meteo attuale e allerta

EUMETNET – MeteoAlarm

pictomap

Fonte: DWD

Sono possibili ritardi tra questo sito e www.meteoalarm.eu: per avere informazioni sempre aggiornate sui livelli d'allerta come pubblicati dai Servizi Meteorologici Nazionali, visitate www.meteoalarm.eu.